Latest Coastal Weather Observations for Hogan Island

IDT60701

Issued at 6:42 pm EDT Friday 3 December 2021 (issued every 10 minutes, with the page automatically refreshed every 10 minutes)

About coastal observations | Map of coastal stations | Coastal observations for TAS | Marine services | Other Formats
Station Details ID: 200838 Name: HOGAN ISLAND Lat: -39.22 Lon: 146.98 Height: 116.0 m
Data from the previous 72 hours. | See also: Recent months at Hogan Island
Date/Time
EDT
Wind Sea
Height
m
Swell Vis
km
Cloud Weather Temp
°C
Press
MSL
hPa
Rain since
9am
mm
Dir  Spd
kts
Gust
kts
Height
m
Period
s
Dir
03/06:30pm WSW 24 27 - - - - - - - 15.2 1017.1 0.0
03/06:00pm WSW 24 27 - - - - - - - 15.4 1016.9 0.0
03/05:30pm WSW 24 27 - - - - - - - 16.1 1017.1 0.0
03/05:00pm WSW 21 25 - - - - - - - 16.3 1017.4 0.0
03/04:30pm WSW 19 23 - - - - - - - 17.3 1017.6 0.0
03/04:00pm WSW 17 20 - - - - - - - 17.5 1017.8 0.0
03/03:30pm WSW 14 17 - - - - - - - 17.7 1018.1 0.0
03/03:00pm W 13 16 - - - - - - - 17.8 1018.4 0.0
03/02:30pm WSW 13 16 - - - - - - - 18.1 1018.7 0.0
03/02:00pm WSW 12 14 - - - - - - - 17.9 1018.7 0.0
03/01:30pm WSW 10 13 - - - - - - - 17.4 1018.9 0.0
03/01:00pm WSW 12 14 - - - - - - - 17.7 1018.9 0.0
03/12:30pm SW 13 15 - - - - - - - 18.2 1018.8 0.0
03/12:00pm SW 14 16 - - - - - - - 18.1 1018.8 0.0
03/11:30am SW 15 18 - - - - - - - 17.6 1018.9 0.0
03/11:00am WSW 17 20 - - - - - - - 17.2 1018.9 0.0
03/10:30am WSW 19 22 - - - - - - - 16.9 1018.7 0.0
03/10:00am WSW 19 23 - - - - - - - 15.9 1018.5 0.0
03/09:30am WSW 20 24 - - - - - - - 15.4 1018.4 0.0
03/09:00am WSW 23 26 - - - - - - - 15.4 1018.0 1.4
03/08:30am WSW 23 28 - - - - - - - 14.5 1017.6 1.4
03/08:00am WSW 26 31 - - - - - - - 14.1 1017.4 1.4
03/07:30am WSW 26 30 - - - - - - - 13.6 1016.8 1.4
03/07:00am WSW 28 33 - - - - - - - 13.3 1016.4 1.4
03/06:30am WSW 31 35 - - - - - - - 13.1 1015.8 1.4
03/06:00am WSW 26 31 - - - - - - - 12.9 1015.8 1.4
03/05:52am WSW 28 33 - - - - - - - 12.9 1015.7 1.4
03/05:30am WSW 35 39 - - - - - - - 12.8 1014.6 1.4
03/05:00am WSW 30 35 - - - - - - - 12.7 1014.9 1.4
03/04:30am WSW 33 39 - - - - - - - 12.7 1014.2 1.4
03/04:00am WSW 32 36 - - - - - - - 12.6 1014.5 1.4
03/03:30am WSW 36 41 - - - - - - - 12.6 1014.0 1.4
03/03:00am WSW 37 43 - - - - - - - 12.5 1014.0 1.4
03/02:30am WSW 37 42 - - - - - - - 12.7 1014.3 1.4
03/02:00am WSW 33 39 - - - - - - - 13.4 1014.4 1.4
03/01:30am WSW 37 43 - - - - - - - 13.1 1014.2 1.4
03/01:00am WSW 35 41 - - - - - - - 13.3 1014.0 1.4
03/12:30am WSW 34 39 - - - - - - - 13.5 1013.9 1.4
03/12:00am WSW 31 37 - - - - - - Recent precip. 14.0 1013.7 1.4
 
Date/Time
EDT
Wind Sea
Height
m
Swell Vis
km
Cloud Weather Temp
°C
Press
MSL
hPa
Rain since
9am
mm
Dir  Spd
kts
Gust
kts
Height
m
Period
s
Dir
02/11:30pm WSW 28 33 - - - - - - - 14.6 1014.1 1.4
02/11:00pm WSW 28 32 - - - - - - - 14.8 1014.3 1.2
02/10:30pm WSW 26 31 - - - - - - - 15.4 1014.3 1.2
02/10:00pm WSW 19 22 - - - - - - - 16.4 1013.8 1.2
02/09:53pm W 20 23 - - - - - - - 16.4 1014.0 1.2
02/09:30pm WNW 13 16 - - - - - - - 16.9 1013.6 1.2
02/09:00pm WNW 13 16 - - - - - - Rain 17.5 1013.4 0.8
02/08:30pm WNW 7 12 - - - - - - - 17.0 1013.7 0.6
02/08:00pm WNW 10 18 - - - - - - - 16.7 1012.2 0.4
02/07:51pm NW 20 33 - - - - - - - 17.5 1013.4 0.0
02/07:46pm NW 25 36 - - - - - - - 18.5 1013.1 0.0
02/07:36pm NW 33 45 - - - - - - - 19.0 1012.4 0.0
02/07:31pm NW 33 47 - - - - - - - 18.5 1012.7 0.0
02/07:30pm NW 33 47 - - - - - - - 17.9 1012.6 0.0
02/07:25pm N 26 47 - - - - - - - 17.3 1011.8 0.0
02/07:23pm N 21 40 - - - - - - - 17.4 1012.3 0.0
02/07:18pm NNE 19 22 - - - - - - - 17.2 1010.3 0.0
02/07:00pm ENE 17 21 - - - - - - - 17.3 1009.1 0.0
02/06:30pm NE 17 21 - - - - - - - 18.0 1009.5 0.0
02/06:00pm ENE 16 19 - - - - - - - 18.0 1009.9 0.0
02/05:30pm ENE 15 20 - - - - - - - 18.6 1011.1 0.0
02/05:00pm ENE 14 17 - - - - - - - 19.3 1010.8 0.0
02/04:30pm ENE 15 19 - - - - - - - 19.7 1011.2 0.0
02/04:00pm ENE 14 17 - - - - - - - 20.4 1011.5 0.0
02/03:30pm ENE 13 15 - - - - - - - 19.6 1012.2 0.0
02/03:00pm ENE 11 14 - - - - - - - 21.5 1012.7 0.0
02/02:30pm ENE 11 14 - - - - - - - 20.0 1013.0 0.0
02/02:00pm ENE 11 15 - - - - - - - 20.5 1013.0 0.0
02/01:30pm ENE 10 13 - - - - - - - 21.4 1013.2 0.0
02/01:00pm ENE 9 12 - - - - - - - 21.1 1013.4 0.0
02/12:30pm ENE 12 15 - - - - - - - 20.6 1013.5 0.0
02/12:00pm ENE 12 14 - - - - - - - 21.0 1013.5 0.0
02/11:30am ENE 12 15 - - - - - - - 20.8 1013.6 0.0
02/11:00am ENE 9 11 - - - - - - - 20.9 1014.1 0.0
02/10:30am NE 6 11 - - - - - - - 23.2 1014.3 0.0
02/10:00am N 6 9 - - - - - - - 22.3 1014.3 0.0
02/09:30am NE 10 15 - - - - - - - 21.8 1013.9 0.0
02/09:00am NE 13 17 - - - - - - - 20.1 1013.2 0.2
02/08:30am NE 12 14 - - - - - - - 19.6 1013.2 -
02/08:00am NE 11 13 - - - - - - - 19.8 1013.3 -
02/07:30am NE 10 13 - - - - - - - 19.4 1013.2 -
02/07:00am NE 9 12 - - - - - - - 18.9 1013.1 -
02/06:30am NNE 12 14 - - - - - - - 17.6 1012.9 -
02/06:00am NNE 12 14 - - - - - - - 17.0 1012.7 -
02/05:30am NNE 12 15 - - - - - - - 16.9 1012.6 -
02/05:00am NNE 13 16 - - - - - - - 17.2 1012.5 -
02/04:30am NNE 13 16 - - - - - - - 17.4 1012.5 -
02/04:00am N 19 23 - - - - - - - 20.1 1012.7 -
02/03:30am N 19 24 - - - - - - - 18.4 1012.8 -
02/03:00am NNE 14 16 - - - - - - - 17.3 1012.7 0.0
02/02:30am NNE 14 16 - - - - - - - 17.6 1013.1 -
02/02:00am NNE 14 17 - - - - - - - 18.1 1013.4 -
02/01:30am NNE 18 20 - - - - - - - 18.6 1013.4 -
02/01:00am NNE 18 22 - - - - - - - 18.6 1013.6 -
02/12:30am NNE 18 21 - - - - - - - 18.9 1013.9 -
02/12:00am NNE 19 23 - - - - - - - 19.4 1014.0 -
 
Date/Time
EDT
Wind Sea
Height
m
Swell Vis
km
Cloud Weather Temp
°C
Press
MSL
hPa
Rain since
9am
mm
Dir  Spd
kts
Gust
kts
Height
m
Period
s
Dir
01/11:30pm N 21 24 - - - - - - - 19.8 1014.1 -
01/11:00pm N 22 25 - - - - - - - 19.1 1014.2 -
01/10:30pm NNE 20 25 - - - - - - - 17.8 1014.1 -
01/10:00pm NNE 19 22 - - - - - - - 17.2 1014.0 -
01/09:30pm NNE 20 24 - - - - - - - 17.6 1013.9 -
01/09:00pm NNE 19 23 - - - - - - - 17.9 1013.8 0.0
01/08:30pm NNE 20 23 - - - - - - - 18.0 1013.6 -
01/08:00pm NNE 19 22 - - - - - - - 18.0 1013.5 -
01/07:30pm NNE 17 21 - - - - - - - 18.0 1013.3 -
01/07:00pm NE 15 17 - - - - - - - 18.1 1012.9 -
01/06:30pm NE 14 21 - - - - - - - 18.9 1012.6 -
01/06:00pm NE 14 18 - - - - - - - 19.1 1012.1 -
01/05:30pm ENE 14 19 - - - - - - - 18.7 1012.1 -
01/05:00pm ENE 15 20 - - - - - - - 19.8 1012.3 -
01/04:30pm ENE 14 21 - - - - - - - 18.9 1012.3 -
01/04:00pm ENE 12 18 - - - - - - - 19.1 1012.5 -
01/03:30pm NE 10 14 - - - - - - - 19.3 1013.0 -
01/03:00pm ENE 11 15 - - - - - - - 20.3 1013.0 0.2
01/02:30pm NE 10 13 - - - - - - - 20.9 1013.2 -
01/02:00pm NE 11 13 - - - - - - - 21.6 1013.2 -
01/01:30pm NE 10 12 - - - - - - - 22.1 1013.2 -
01/01:00pm NE 11 12 - - - - - - - 22.3 1013.3 -
01/12:30pm NE 12 14 - - - - - - - 22.5 1013.6 -
01/12:00pm NE 11 15 - - - - - - - 20.9 1013.4 0.0
01/11:30am NE 13 15 - - - - - - - 20.9 1013.5 0.0
01/11:00am NE 15 18 - - - - - - - 19.3 1013.4 0.0
01/10:30am NE 13 17 - - - - - - - 20.6 1013.4 0.0
01/10:00am NE 13 16 - - - - - - - 20.1 1013.5 0.0
01/09:30am NE 14 16 - - - - - - - 19.0 1013.5 0.0
01/09:00am NE 14 16 - - - - - - - 17.3 1013.5 0.0
01/08:30am NE 12 14 - - - - - - - 16.9 1013.4 0.0
01/08:00am NE 12 15 - - - - - - - 16.6 1013.3 0.0
01/07:30am ENE 13 15 - - - - - - - 16.1 1013.0 0.0
01/07:00am ENE 13 16 - - - - - - - 15.8 1012.7 0.0
01/06:30am ENE 12 14 - - - - - - - 15.4 1012.6 0.0
01/06:00am E 11 14 - - - - - - - 14.9 1012.5 0.0
01/05:00am E 13 14 - - - - - - - 14.8 1012.3 0.0
01/04:30am E 13 15 - - - - - - - 15.0 1012.3 0.0
01/04:00am ENE 13 16 - - - - - - - 15.2 1012.4 0.0
01/03:30am E 13 15 - - - - - - - 15.3 1012.5 0.0
01/03:00am E 13 17 - - - - - - - 15.2 1012.9 0.0
01/02:30am E 13 16 - - - - - - - 15.2 1013.1 0.0
01/02:00am E 13 16 - - - - - - - 15.3 1013.3 0.0
01/01:30am E 13 16 - - - - - - - 15.2 1013.7 0.0
01/01:00am ENE 13 15 - - - - - - - 15.1 1013.8 0.0
01/12:30am ENE 12 13 - - - - - - - 14.9 1014.1 0.0
01/12:00am NE 15 17 - - - - - - - 15.1 1014.3 0.0
 
Date/Time
EDT
Wind Sea
Height
m
Swell Vis
km
Cloud Weather Temp
°C
Press
MSL
hPa
Rain since
9am
mm
Dir  Spd
kts
Gust
kts
Height
m
Period
s
Dir
30/11:30pm ENE 16 17 - - - - - - - 15.0 1014.2 0.0
30/11:00pm ENE 15 17 - - - - - - - 15.0 1014.3 0.0
30/10:30pm ENE 16 17 - - - - - - - 14.9 1014.6 0.0
30/10:00pm ENE 17 18 - - - - - - - 15.0 1014.5 0.0
30/09:30pm ENE 17 18 - - - - - - - 15.0 1014.4 0.0
30/09:00pm ENE 17 19 - - - - - - - 15.1 1014.3 0.0
30/08:30pm ENE 17 20 - - - - - - - 15.1 1014.2 0.0
30/08:00pm ENE 19 21 - - - - - - - 15.3 1013.9 0.0
30/07:30pm ENE 21 24 - - - - - - - 15.8 1013.7 0.0
30/07:00pm ENE 20 23 - - - - - - - 16.1 1013.5 0.0

Other formats

Comma delimited format used in spreadsheet applications
http://www.bom.gov.au/fwo/IDT60701/IDT60701.94949.axf

JavaScript Object Notation format (JSON) in row-major order
http://www.bom.gov.au/fwo/IDT60701/IDT60701.94949.json

Data quality

Most of these data are generated automatically and are frequently updated. Quality checks on data are not normally performed. It is possible for incorrect values to appear. Refer to information at About Latest Weather Observations and please check the disclaimer before using these data.